createdAt,value
2023-04-20T00:00:25.534Z,3.40
2023-04-20T00:02:53.129Z,3.15
2023-04-20T00:05:20.006Z,2.90
2023-04-20T00:07:48.406Z,3.17
2023-04-20T00:10:15.486Z,3.83
2023-04-20T00:12:42.766Z,4.50
2023-04-20T00:15:09.766Z,3.08
2023-04-20T00:17:38.765Z,5.03
2023-04-20T00:20:06.076Z,3.95
2023-04-20T00:22:32.718Z,4.30
2023-04-20T00:24:59.258Z,2.28
2023-04-20T00:27:26.167Z,3.55
2023-04-20T00:29:52.698Z,5.65
2023-04-20T00:32:19.275Z,3.20
2023-04-20T00:34:46.022Z,4.18
2023-04-20T00:37:12.578Z,3.67
2023-04-20T00:39:39.161Z,2.75
2023-04-20T00:42:09.137Z,3.72
2023-04-20T00:44:35.986Z,2.72
2023-04-20T00:47:02.642Z,2.22
2023-04-20T00:49:30.822Z,3.92
2023-04-20T00:52:01.025Z,3.42
2023-04-20T00:54:29.805Z,3.28
2023-04-20T00:56:57.984Z,3.78
2023-04-20T00:59:24.845Z,5.47
2023-04-20T01:01:51.469Z,5.28
2023-04-20T01:04:18.637Z,2.45
2023-04-20T01:06:45.391Z,5.03
2023-04-20T01:09:12.472Z,5.20
2023-04-20T01:11:39.425Z,3.92
2023-04-20T01:14:06.433Z,2.78
2023-04-20T01:16:34.803Z,3.17
2023-04-20T01:19:01.522Z,4.60
2023-04-20T01:21:28.187Z,3.63
2023-04-20T01:23:55.000Z,3.15
2023-04-20T01:26:23.799Z,2.60
2023-04-20T01:28:50.519Z,3.70
2023-04-20T01:31:17.678Z,4.38
2023-04-20T01:33:44.509Z,3.42
2023-04-20T01:36:11.303Z,3.38
2023-04-20T01:38:38.133Z,3.50
2023-04-20T01:41:06.913Z,5.82
2023-04-20T01:43:35.108Z,3.83
2023-04-20T01:46:01.897Z,6.03
2023-04-20T01:48:28.575Z,5.25
2023-04-20T01:50:55.575Z,4.27
2023-04-20T01:53:22.278Z,4.35
2023-04-20T01:55:49.853Z,3.17
2023-04-20T01:58:16.751Z,3.47
2023-04-20T02:00:43.601Z,3.70
2023-04-20T02:03:11.121Z,3.87
2023-04-20T02:05:37.828Z,4.18
2023-04-20T02:08:04.797Z,3.83
2023-04-20T02:10:31.396Z,3.10
2023-04-20T02:12:57.992Z,3.40
2023-04-20T02:15:24.577Z,6.57
2023-04-20T02:17:52.188Z,4.63
2023-04-20T02:20:19.931Z,4.07
2023-04-20T02:22:46.762Z,5.07
2023-04-20T02:25:14.888Z,6.57
2023-04-20T02:27:41.746Z,5.27
2023-04-20T02:30:08.713Z,6.73
2023-04-20T02:32:35.385Z,3.13
2023-04-20T02:35:03.973Z,4.90
2023-04-20T02:37:31.174Z,3.10
2023-04-20T02:39:57.888Z,5.25
2023-04-20T02:42:24.562Z,3.33
2023-04-20T02:44:52.703Z,5.70
2023-04-20T02:47:19.460Z,5.57
2023-04-20T02:49:46.094Z,4.03
2023-04-20T02:52:12.716Z,5.17
2023-04-20T02:54:39.282Z,5.60
2023-04-20T02:57:05.922Z,3.97
2023-04-20T02:59:32.694Z,5.88
2023-04-20T03:01:59.396Z,6.38
2023-04-20T03:04:27.705Z,5.43
2023-04-20T03:06:54.714Z,5.05
2023-04-20T03:09:21.646Z,4.37
2023-04-20T03:11:48.536Z,4.80
2023-04-20T03:14:15.147Z,5.13
2023-04-20T03:16:42.024Z,4.57
2023-04-20T03:19:08.818Z,5.28
2023-04-20T03:21:35.701Z,4.40
2023-04-20T03:24:02.615Z,4.33
2023-04-20T03:26:29.198Z,4.27
2023-04-20T03:28:56.008Z,5.07
2023-04-20T03:31:22.704Z,4.73
2023-04-20T03:33:49.269Z,5.38
2023-04-20T03:36:15.951Z,4.03
2023-04-20T03:38:42.622Z,7.77
2023-04-20T03:41:09.225Z,5.13
2023-04-20T03:43:35.789Z,3.63
2023-04-20T03:46:02.587Z,3.93
2023-04-20T03:48:29.268Z,5.73
2023-04-20T03:50:56.041Z,4.10
2023-04-20T03:53:23.297Z,4.97
2023-04-20T03:55:49.898Z,4.72
2023-04-20T03:58:17.318Z,4.95
2023-04-20T04:00:43.980Z,4.83
2023-04-20T04:03:10.948Z,3.47
2023-04-20T04:05:37.656Z,4.90
2023-04-20T04:08:04.366Z,5.63
2023-04-20T04:10:30.948Z,6.67
2023-04-20T04:12:57.617Z,4.70
2023-04-20T04:15:24.429Z,4.77
2023-04-20T04:17:51.170Z,6.88
2023-04-20T04:20:17.927Z,4.47
2023-04-20T04:22:44.526Z,6.67
2023-04-20T04:25:11.839Z,4.83
2023-04-20T04:27:39.785Z,4.53
2023-04-20T04:30:07.265Z,4.00
2023-04-20T04:32:36.677Z,7.07
2023-04-20T04:35:03.565Z,9.83
2023-04-20T04:37:30.202Z,10.03
2023-04-20T04:39:58.133Z,8.03
2023-04-20T04:42:24.848Z,6.97
2023-04-20T04:44:53.390Z,4.80
2023-04-20T04:47:21.871Z,7.83
2023-04-20T04:49:49.227Z,6.57
2023-04-20T04:52:15.826Z,7.27
2023-04-20T04:54:42.437Z,7.73
2023-04-20T04:57:08.999Z,6.47
2023-04-20T04:59:36.022Z,7.83
2023-04-20T05:02:02.681Z,5.03
2023-04-20T05:04:29.360Z,5.97
2023-04-20T05:06:55.997Z,8.33
2023-04-20T05:09:22.549Z,8.60
2023-04-20T05:11:49.084Z,5.57
2023-04-20T05:14:15.770Z,10.13
2023-04-20T05:16:42.403Z,10.83
2023-04-20T05:19:09.047Z,8.23
2023-04-20T05:21:36.083Z,6.43
2023-04-20T05:24:02.767Z,9.30
2023-04-20T05:26:29.294Z,7.00
2023-04-20T05:28:56.144Z,6.37
2023-04-20T05:31:22.756Z,8.43
2023-04-20T05:33:49.352Z,5.37
2023-04-20T05:36:16.033Z,8.17
2023-04-20T05:38:42.617Z,9.63
2023-04-20T05:41:09.235Z,7.83
2023-04-20T05:43:35.821Z,7.87
2023-04-20T05:46:02.442Z,6.40
2023-04-20T05:48:30.180Z,7.70
2023-04-20T05:50:57.200Z,9.33
2023-04-20T05:53:23.778Z,9.60
2023-04-20T05:55:50.358Z,12.90
2023-04-20T05:58:17.394Z,5.97
2023-04-20T06:00:44.411Z,9.57
2023-04-20T06:03:11.332Z,10.03
2023-04-20T06:05:38.324Z,10.00
2023-04-20T06:08:05.004Z,9.88
2023-04-20T06:10:34.033Z,10.27
2023-04-20T06:13:00.954Z,12.07
2023-04-20T06:15:27.988Z,10.90
2023-04-20T06:17:54.633Z,7.43
2023-04-20T06:20:21.419Z,10.10
2023-04-20T06:22:48.284Z,8.70
2023-04-20T06:25:15.761Z,8.32
2023-04-20T06:27:42.774Z,6.70
2023-04-20T06:30:10.023Z,7.25
2023-04-20T06:32:37.872Z,9.33
2023-04-20T06:35:05.983Z,6.30
2023-04-20T06:37:32.641Z,10.85
2023-04-20T06:39:59.353Z,10.82
2023-04-20T06:42:26.371Z,8.32
2023-04-20T06:44:52.950Z,10.60
2023-04-20T06:47:19.587Z,6.72
2023-04-20T06:49:46.280Z,8.30
2023-04-20T06:52:12.818Z,8.85
2023-04-20T06:54:39.352Z,11.77
2023-04-20T06:57:08.480Z,12.23
2023-04-20T06:59:35.623Z,9.27
2023-04-20T07:02:02.452Z,9.48
2023-04-20T07:04:29.266Z,7.00
2023-04-20T07:06:55.928Z,8.20
2023-04-20T07:09:23.074Z,11.82
2023-04-20T07:11:49.930Z,7.50
2023-04-20T07:14:16.609Z,8.53
2023-04-20T07:16:43.182Z,8.38
2023-04-20T07:19:10.293Z,10.60
2023-04-20T07:21:37.004Z,10.75
2023-04-20T07:24:03.826Z,11.55
2023-04-20T07:26:31.102Z,10.93
2023-04-20T07:28:57.907Z,11.95
2023-04-20T07:31:24.571Z,11.73
2023-04-20T07:33:51.223Z,9.60
2023-04-20T07:36:17.893Z,11.65
2023-04-20T07:38:44.417Z,10.98
2023-04-20T07:41:11.460Z,15.07
2023-04-20T07:43:38.965Z,13.75
2023-04-20T07:46:05.693Z,10.35
2023-04-20T07:48:34.199Z,9.48
2023-04-20T07:51:01.075Z,13.25
2023-04-20T07:53:30.029Z,9.65
2023-04-20T07:55:56.621Z,12.02
2023-04-20T07:58:23.152Z,11.88
2023-04-20T08:00:49.770Z,10.45
2023-04-20T08:03:16.466Z,7.50
2023-04-20T08:05:43.306Z,9.80
2023-04-20T08:08:09.982Z,10.68
2023-04-20T08:10:37.073Z,8.35
2023-04-20T08:13:03.679Z,11.52
2023-04-20T08:15:31.440Z,8.77
2023-04-20T08:17:58.390Z,10.00
2023-04-20T08:20:25.076Z,9.48
2023-04-20T08:22:52.780Z,9.93
2023-04-20T08:25:19.475Z,11.65
2023-04-20T08:27:46.069Z,12.10
2023-04-20T08:30:12.895Z,9.93
2023-04-20T08:32:40.901Z,10.05
2023-04-20T08:35:08.948Z,9.55
2023-04-20T08:37:35.751Z,14.15
2023-04-20T08:40:02.353Z,10.93
2023-04-20T08:42:28.970Z,9.57
2023-04-20T08:44:55.924Z,11.23
2023-04-20T08:47:22.789Z,12.02
2023-04-20T08:49:54.608Z,10.73
2023-04-20T08:52:21.271Z,11.75
2023-04-20T08:54:56.185Z,12.63
2023-04-20T08:57:24.967Z,11.35
2023-04-20T08:59:51.848Z,12.77
2023-04-20T09:02:19.673Z,15.13
2023-04-20T09:04:49.108Z,13.63
2023-04-20T09:07:20.815Z,14.00
2023-04-20T09:09:57.541Z,12.13
2023-04-20T09:12:24.657Z,14.38
2023-04-20T09:14:52.043Z,12.77
2023-04-20T09:17:30.884Z,15.25
2023-04-20T09:19:57.619Z,12.20
2023-04-20T09:22:32.697Z,12.45
2023-04-20T09:24:59.923Z,11.93
2023-04-20T09:27:26.459Z,12.25
2023-04-20T09:30:06.615Z,13.38
2023-04-20T09:32:33.765Z,15.73
2023-04-20T09:35:00.340Z,14.38
2023-04-20T09:37:26.957Z,13.30
2023-04-20T09:39:59.373Z,15.32
2023-04-20T09:42:28.295Z,15.45
2023-04-20T09:44:57.214Z,16.75
2023-04-20T09:47:25.901Z,15.43
2023-04-20T09:49:54.273Z,15.73
2023-04-20T09:52:21.006Z,14.40
2023-04-20T09:54:47.572Z,14.75
2023-04-20T09:57:14.850Z,14.68
2023-04-20T09:59:46.314Z,14.95
2023-04-20T10:02:14.449Z,14.90
2023-04-20T10:04:57.306Z,13.18
2023-04-20T10:07:28.920Z,14.48
2023-04-20T10:10:16.028Z,12.95
2023-04-20T10:12:53.572Z,12.93
2023-04-20T10:15:23.980Z,12.80
2023-04-20T10:17:51.029Z,13.00
2023-04-20T10:20:27.261Z,13.52
2023-04-20T10:23:06.062Z,14.07
2023-04-20T10:25:32.637Z,10.32
2023-04-20T10:28:04.457Z,10.57
2023-04-20T10:30:32.375Z,9.52
2023-04-20T10:33:11.114Z,8.82
2023-04-20T10:35:46.677Z,7.93
2023-04-20T10:38:13.406Z,9.05
2023-04-20T10:40:40.249Z,5.85
2023-04-20T10:43:19.567Z,6.25
2023-04-20T10:45:46.117Z,7.47
2023-04-20T10:48:14.849Z,6.88
2023-04-20T10:50:42.590Z,6.20
2023-04-20T10:53:19.615Z,7.90
2023-04-20T10:55:46.319Z,8.10
2023-04-20T10:58:24.432Z,6.10
2023-04-20T11:01:01.432Z,6.55
2023-04-20T11:03:34.264Z,6.55
2023-04-20T11:06:01.657Z,5.57
2023-04-20T11:08:41.971Z,4.38
2023-04-20T11:11:21.577Z,6.95
2023-04-20T11:13:48.516Z,4.93
2023-04-20T11:16:16.768Z,5.55
2023-04-20T11:18:51.894Z,5.18
2023-04-20T11:21:19.490Z,5.40
2023-04-20T11:23:46.826Z,5.05
2023-04-20T11:26:13.634Z,6.13
2023-04-20T11:28:55.959Z,5.25
2023-04-20T11:31:23.320Z,6.28
2023-04-20T11:33:50.161Z,6.70
2023-04-20T11:36:21.478Z,5.82
2023-04-20T11:38:49.047Z,4.68
2023-04-20T11:41:16.566Z,4.55
2023-04-20T11:43:46.197Z,4.88
2023-04-20T11:46:20.278Z,5.05
2023-04-20T11:48:47.876Z,5.35
2023-04-20T11:51:15.148Z,4.80
2023-04-20T11:53:41.951Z,5.50
2023-04-20T11:56:09.058Z,5.40
2023-04-20T11:58:36.278Z,4.78
2023-04-20T12:01:02.839Z,5.60
2023-04-20T12:03:29.615Z,5.93
2023-04-20T12:05:56.411Z,5.00
2023-04-20T12:08:24.590Z,5.22
2023-04-20T12:10:51.364Z,4.90
2023-04-20T12:13:17.884Z,5.20
2023-04-20T12:15:44.476Z,5.10
2023-04-20T12:18:11.166Z,5.53
2023-04-20T12:20:37.805Z,5.05
2023-04-20T12:23:04.409Z,5.38
2023-04-20T12:25:31.201Z,6.15
2023-04-20T12:27:57.767Z,4.43
2023-04-20T12:30:24.426Z,6.35
2023-04-20T12:32:51.214Z,4.53
2023-04-20T12:35:17.974Z,4.43
2023-04-20T12:37:44.628Z,6.28
2023-04-20T12:40:11.746Z,4.68
2023-04-20T12:42:38.343Z,4.38
2023-04-20T12:45:05.259Z,5.00
2023-04-20T12:47:31.874Z,7.07
2023-04-20T12:49:58.442Z,6.50
2023-04-20T12:52:24.966Z,5.38
2023-04-20T12:54:52.153Z,6.35
2023-04-20T12:57:18.695Z,5.28
2023-04-20T12:59:45.439Z,5.70
2023-04-20T13:02:12.171Z,5.35
2023-04-20T13:04:38.869Z,5.78
2023-04-20T13:07:06.209Z,5.93
2023-04-20T13:09:32.880Z,5.55
2023-04-20T13:11:59.419Z,7.20
2023-04-20T13:14:26.728Z,7.60
2023-04-20T13:16:55.154Z,8.07
2023-04-20T13:19:22.549Z,5.60
2023-04-20T13:21:49.143Z,6.40
2023-04-20T13:24:16.382Z,6.60
2023-04-20T13:26:43.115Z,5.80
2023-04-20T13:29:09.681Z,7.15
2023-04-20T13:31:37.478Z,6.53
2023-04-20T13:34:04.093Z,5.47
2023-04-20T13:36:31.725Z,5.32
2023-04-20T13:38:58.645Z,5.45
2023-04-20T13:41:25.298Z,8.23
2023-04-20T13:43:52.049Z,6.15
2023-04-20T13:46:20.015Z,5.35
2023-04-20T13:48:46.824Z,5.07
2023-04-20T13:51:13.384Z,5.55
2023-04-20T13:53:39.939Z,6.50
2023-04-20T13:56:06.889Z,5.30
2023-04-20T13:58:33.942Z,6.93
2023-04-20T14:01:00.871Z,5.40
2023-04-20T14:03:27.561Z,5.68
2023-04-20T14:05:54.307Z,6.22
2023-04-20T14:08:23.201Z,5.78
2023-04-20T14:10:49.842Z,6.15
2023-04-20T14:13:16.512Z,5.40
2023-04-20T14:15:43.211Z,6.90
2023-04-20T14:18:09.844Z,5.78
2023-04-20T14:20:36.422Z,6.53
2023-04-20T14:23:03.002Z,5.47
2023-04-20T14:25:29.668Z,6.50
2023-04-20T14:27:56.466Z,5.32
2023-04-20T14:30:23.443Z,7.05
2023-04-20T14:32:57.464Z,6.07
2023-04-20T14:35:26.102Z,6.32
2023-04-20T14:37:53.120Z,6.28
2023-04-20T14:40:20.460Z,6.13
2023-04-20T14:42:47.392Z,6.07
2023-04-20T14:45:14.168Z,5.68
2023-04-20T14:47:44.017Z,7.63
2023-04-20T14:50:11.352Z,7.80
2023-04-20T14:52:37.933Z,7.85
2023-04-20T14:55:04.809Z,7.75
2023-04-20T14:57:31.555Z,7.05
2023-04-20T14:59:58.159Z,7.85
2023-04-20T15:02:25.477Z,8.05
2023-04-20T15:04:52.670Z,7.40
2023-04-20T15:07:19.414Z,7.38
2023-04-20T15:09:46.535Z,8.85
2023-04-20T15:12:13.083Z,8.93
2023-04-20T15:14:39.735Z,9.55
2023-04-20T15:17:06.408Z,8.30
2023-04-20T15:19:32.975Z,9.60
2023-04-20T15:22:00.160Z,8.70
2023-04-20T15:24:26.732Z,9.82
2023-04-20T15:26:53.668Z,11.23
2023-04-20T15:29:20.596Z,11.05
2023-04-20T15:31:47.247Z,10.88
2023-04-20T15:34:17.115Z,10.95
2023-04-20T15:36:44.364Z,12.40
2023-04-20T15:39:10.952Z,11.25
2023-04-20T15:41:37.690Z,11.68
2023-04-20T15:44:04.526Z,11.02
2023-04-20T15:46:31.218Z,11.38
2023-04-20T15:48:58.066Z,15.30
2023-04-20T15:51:24.927Z,11.48
2023-04-20T15:53:51.766Z,11.57
2023-04-20T15:56:18.749Z,12.10
2023-04-20T15:58:46.115Z,12.85
2023-04-20T16:01:12.758Z,12.82
2023-04-20T16:03:39.745Z,11.30
2023-04-20T16:06:07.218Z,13.77
2023-04-20T16:08:33.790Z,12.45
2023-04-20T16:11:00.582Z,11.30
2023-04-20T16:13:27.248Z,10.98
2023-04-20T16:15:55.452Z,11.20
2023-04-20T16:18:22.262Z,11.55
2023-04-20T16:20:48.896Z,10.80
2023-04-20T16:23:15.858Z,12.15
2023-04-20T16:25:43.017Z,11.88
2023-04-20T16:28:09.609Z,10.68
2023-04-20T16:30:39.314Z,11.45
2023-04-20T16:33:06.149Z,11.38
2023-04-20T16:35:32.732Z,10.52
2023-04-20T16:37:59.336Z,10.45
2023-04-20T16:40:26.268Z,10.70
2023-04-20T16:42:52.959Z,9.32
2023-04-20T16:45:26.143Z,9.98
2023-04-20T16:47:53.018Z,8.95
2023-04-20T16:50:20.391Z,9.77
2023-04-20T16:52:47.827Z,10.52
2023-04-20T16:55:14.819Z,9.55
2023-04-20T16:57:42.051Z,9.25
2023-04-20T17:00:10.634Z,9.35
2023-04-20T17:02:37.554Z,10.40
2023-04-20T17:05:05.414Z,10.68
2023-04-20T17:07:31.979Z,9.00
2023-04-20T17:09:58.591Z,8.90
2023-04-20T17:12:25.336Z,10.38
2023-04-20T17:14:51.885Z,10.00
2023-04-20T17:17:18.530Z,9.60
2023-04-20T17:19:45.176Z,8.80
2023-04-20T17:22:11.798Z,9.30
2023-04-20T17:24:38.530Z,10.35
2023-04-20T17:27:05.188Z,8.88
2023-04-20T17:29:35.943Z,9.23
2023-04-20T17:32:02.744Z,9.45
2023-04-20T17:34:29.388Z,10.95
2023-04-20T17:36:56.103Z,11.15
2023-04-20T17:39:23.626Z,10.18
2023-04-20T17:41:50.166Z,10.52
2023-04-20T17:44:16.872Z,10.60
2023-04-20T17:46:43.664Z,12.73
2023-04-20T17:49:10.345Z,14.88
2023-04-20T17:51:36.948Z,13.88
2023-04-20T17:54:03.724Z,12.45
2023-04-20T17:56:30.309Z,15.02
2023-04-20T17:58:56.845Z,13.35
2023-04-20T18:01:23.758Z,13.98
2023-04-20T18:03:50.927Z,14.52
2023-04-20T18:06:17.767Z,15.60
2023-04-20T18:08:44.725Z,13.50
2023-04-20T18:11:11.579Z,14.98
2023-04-20T18:13:38.453Z,14.20
2023-04-20T18:16:07.473Z,15.88
2023-04-20T18:18:37.672Z,13.48
2023-04-20T18:21:04.946Z,14.90
2023-04-20T18:23:32.859Z,16.38
2023-04-20T18:25:59.757Z,14.68
2023-04-20T18:28:26.529Z,15.85
2023-04-20T18:30:55.733Z,15.10
2023-04-20T18:33:23.962Z,15.68
2023-04-20T18:35:50.886Z,17.17
2023-04-20T18:38:17.673Z,16.33
2023-04-20T18:40:44.784Z,17.27
2023-04-20T18:43:11.934Z,17.52
2023-04-20T18:45:39.098Z,15.13
2023-04-20T18:48:06.564Z,15.82
2023-04-20T18:50:34.086Z,14.93
2023-04-20T18:53:01.335Z,16.67
2023-04-20T18:55:28.253Z,17.05
2023-04-20T18:57:55.683Z,21.60
2023-04-20T19:00:23.051Z,23.08
2023-04-20T19:02:50.646Z,21.60
2023-04-20T19:05:17.969Z,19.92
2023-04-20T19:07:46.247Z,18.67
2023-04-20T19:10:22.381Z,24.52
2023-04-20T19:12:50.398Z,21.45
2023-04-20T19:15:25.626Z,21.77
2023-04-20T19:17:54.975Z,24.38
2023-04-20T19:20:24.035Z,19.80
2023-04-20T19:22:51.075Z,20.52
2023-04-20T19:25:18.487Z,23.85
2023-04-20T19:27:45.804Z,20.83
2023-04-20T19:30:12.983Z,22.23
2023-04-20T19:32:40.291Z,21.75
2023-04-20T19:35:07.324Z,22.15
2023-04-20T19:37:34.317Z,26.02
2023-04-20T19:40:01.233Z,20.27
2023-04-20T19:42:28.403Z,24.17
2023-04-20T19:44:55.579Z,24.35
2023-04-20T19:47:22.598Z,23.88
2023-04-20T19:49:49.718Z,25.85
2023-04-20T19:52:16.612Z,26.95
2023-04-20T19:54:43.537Z,25.55
2023-04-20T19:57:10.781Z,20.05
2023-04-20T19:59:39.331Z,26.27
2023-04-20T20:04:33.744Z,26.65
2023-04-20T20:07:19.393Z,18.88
2023-04-20T20:09:46.576Z,22.73
2023-04-20T20:12:27.468Z,23.73
2023-04-20T20:15:12.354Z,21.27
2023-04-20T20:17:49.438Z,22.80
2023-04-20T20:20:36.996Z,26.67
2023-04-20T20:25:40.116Z,21.17
2023-04-20T20:28:07.006Z,22.58
2023-04-20T20:30:33.853Z,20.52
2023-04-20T20:33:00.891Z,22.45
2023-04-20T20:35:31.717Z,20.60
2023-04-20T20:37:59.144Z,21.33
2023-04-20T20:40:26.413Z,20.33
2023-04-20T20:42:53.090Z,22.25
2023-04-20T20:45:19.960Z,20.35
2023-04-20T20:47:46.937Z,21.23
2023-04-20T20:50:15.953Z,23.27
2023-04-20T20:52:43.554Z,20.33
2023-04-20T20:55:10.625Z,22.05
2023-04-20T20:57:37.340Z,23.38
2023-04-20T21:00:09.531Z,21.50
2023-04-20T21:02:37.190Z,22.70
2023-04-20T21:05:04.682Z,21.52
2023-04-20T21:07:31.503Z,21.40
2023-04-20T21:09:58.159Z,18.67
2023-04-20T21:12:24.824Z,26.70
2023-04-20T21:14:52.707Z,20.40
2023-04-20T21:17:20.661Z,26.00
2023-04-20T21:19:47.420Z,21.50
2023-04-20T21:22:15.774Z,24.88
2023-04-20T21:24:42.314Z,20.27
2023-04-20T21:27:08.959Z,21.45
2023-04-20T21:29:35.492Z,21.65
2023-04-20T21:32:02.371Z,18.95
2023-04-20T21:34:29.439Z,21.50
2023-04-20T21:37:04.360Z,23.17
2023-04-20T21:39:32.595Z,21.13
2023-04-20T21:41:59.902Z,18.40
2023-04-20T21:44:27.178Z,21.88
2023-04-20T21:46:54.018Z,19.98
2023-04-20T21:49:21.472Z,18.33
2023-04-20T21:51:48.307Z,21.15
2023-04-20T21:54:15.229Z,19.95
2023-04-20T21:56:41.880Z,20.85
2023-04-20T21:59:08.551Z,18.95
2023-04-20T22:01:35.240Z,22.52
2023-04-20T22:04:02.232Z,18.83
2023-04-20T22:06:29.075Z,22.65
2023-04-20T22:08:56.542Z,23.13
2023-04-20T22:11:23.271Z,18.35
2023-04-20T22:13:50.176Z,20.53
2023-04-20T22:16:17.945Z,18.20
2023-04-20T22:18:44.632Z,21.20
2023-04-20T22:21:11.179Z,16.05
2023-04-20T22:23:38.832Z,21.00
2023-04-20T22:26:05.828Z,19.33
2023-04-20T22:28:32.849Z,21.38
2023-04-20T22:30:59.512Z,26.30
2023-04-20T22:33:26.116Z,18.63
2023-04-20T22:35:53.441Z,19.10
2023-04-20T22:38:20.372Z,18.33
2023-04-20T22:40:47.007Z,18.30
2023-04-20T22:43:13.804Z,18.08
2023-04-20T22:45:40.769Z,21.63
2023-04-20T22:48:08.392Z,17.42
2023-04-20T22:50:35.125Z,18.45
2023-04-20T22:53:01.663Z,22.67
2023-04-20T22:55:28.816Z,19.40
2023-04-20T22:57:56.747Z,21.08
2023-04-20T23:00:23.661Z,17.60
2023-04-20T23:02:51.865Z,19.25
2023-04-20T23:05:20.980Z,21.63
2023-04-20T23:07:47.668Z,17.90
2023-04-20T23:10:16.277Z,20.93
2023-04-20T23:12:45.193Z,17.80
2023-04-20T23:15:12.318Z,20.30
2023-04-20T23:17:39.676Z,20.58
2023-04-20T23:20:13.889Z,23.00
2023-04-20T23:22:40.739Z,20.40
2023-04-20T23:25:10.838Z,20.40
2023-04-20T23:27:38.667Z,20.15
2023-04-20T23:30:07.131Z,19.57
2023-04-20T23:32:34.643Z,18.87
2023-04-20T23:35:01.405Z,20.30
2023-04-20T23:37:28.072Z,18.23
2023-04-20T23:39:55.385Z,20.95
2023-04-20T23:42:22.473Z,24.58
2023-04-20T23:44:49.256Z,24.07
2023-04-20T23:47:16.105Z,20.13
2023-04-20T23:49:42.793Z,20.53
2023-04-20T23:52:09.475Z,18.45
2023-04-20T23:54:36.108Z,21.23
2023-04-20T23:57:03.242Z,20.13
2023-04-20T23:59:30.679Z,19.27
